KMTH/MTH METAR and TAF weather

Enter ICAO airport designator
Station Type Date Time Source
KMTH METAR 2022/12/05 13:53 UTC NOAA

KMTH 051353Z AUTO 03007KT 10SM CLR 24/19 A3008 RMK AO2 SLP184 T02440189


Station Type Date Time Source
KMTH Decoded METAR 2022/12/05 13:53 UTC NOAA

MARATHON AIRPORT, FL, United States (KMTH) 24-44N 81-03W 2M
Dec 05, 2022 - 08:53 AM EST / 2022.12.05 1353 UTC
Wind: from the NNE (030 degrees) at 8 MPH (7 KT):0
Visibility: 10 mile(s):0
Sky conditions: clear
Temperature: 75.9 F (24.4 C)
Dew Point: 66.0 F (18.9 C)
Relative Humidity: 71%
Pressure (altimeter): 30.08 in. Hg (1018 hPa)
ob: KMTH 051353Z AUTO 03007KT 10SM CLR 24/19 A3008 RMK AO2 SLP184 T02440189
cycle: 14

Station Type Date Time Source
KMTH TAF 2022/12/05 12:33 UTC NOAA

TAF KMTH 051131Z 0512/0612 04008KT P6SM FEW030

Example: see airport list